RNA230 OMDB-VNKT
Flight info
| Callsign | RNA230 |
|---|---|
| Flight time | 3h 50m |
| Altitude | 39000 |
| Route | ANVIX7F ANVIX L223 TARDI N629 IVAKU G216 MCT T500 VUSET R462 BIVIN G214 RK G202 MERUN G452 LKN G598 SIMRA SIMR1G |
| Aircraft | A332/H-SDE3GHIJ2J3J5M1RVWXY/LB2D1 |
Departure
| Time | 2026-05-05 07:13 |
|---|---|
| Airport | Dubai International Airport (OMDB) |
Arrival
| Time | 2026-05-05 11:03 |
|---|---|
| Airport | Tribhuvan International Airport (VNKT) |
| Time | Latitude | Longitude | Altitude | Speed | Heading |
|---|---|---|---|---|---|
| 2026-05-05 06:48 | 25.26825 | 55.35153 | 25 ft | 0 kts | 31° |
| 2026-05-05 07:01 | 25.26813 | 55.35145 | 25 ft | 3 kts | 31° |
| 2026-05-05 07:01 | 25.26794 | 55.35132 | 31 ft | 3 kts | 31° |
| 2026-05-05 07:01 | 25.26778 | 55.35121 | 31 ft | 3 kts | 26° |
| 2026-05-05 07:01 | 25.26758 | 55.35114 | 30 ft | 3 kts | 353° |
| 2026-05-05 07:02 | 25.26739 | 55.35122 | 31 ft | 3 kts | 308° |
| 2026-05-05 07:02 | 25.26727 | 55.35141 | 30 ft | 3 kts | 302° |
| 2026-05-05 07:02 | 25.26718 | 55.35159 | 31 ft | 3 kts | 302° |
| 2026-05-05 07:02 | 25.26709 | 55.35174 | 31 ft | 0 kts | 302° |
| 2026-05-05 07:05 | 25.26710 | 55.35173 | 25 ft | 1 kts | 302° |
| 2026-05-05 07:05 | 25.26719 | 55.35155 | 27 ft | 5 kts | 301° |
| 2026-05-05 07:05 | 25.26722 | 55.35111 | 28 ft | 7 kts | 250° |
| 2026-05-05 07:05 | 25.26680 | 55.35087 | 28 ft | 8 kts | 177° |
| 2026-05-05 07:06 | 25.26636 | 55.35130 | 31 ft | 10 kts | 121° |
| 2026-05-05 07:06 | 25.26592 | 55.35210 | 32 ft | 14 kts | 122° |
| 2026-05-05 07:06 | 25.26534 | 55.35313 | 31 ft | 17 kts | 122° |
| 2026-05-05 07:06 | 25.26469 | 55.35428 | 28 ft | 19 kts | 122° |
| 2026-05-05 07:07 | 25.26399 | 55.35554 | 29 ft | 20 kts | 122° |
| 2026-05-05 07:07 | 25.26323 | 55.35688 | 28 ft | 21 kts | 122° |
| 2026-05-05 07:07 | 25.26241 | 55.35832 | 28 ft | 23 kts | 122° |
| 2026-05-05 07:07 | 25.26157 | 55.35983 | 29 ft | 24 kts | 122° |
| 2026-05-05 07:08 | 25.26068 | 55.36141 | 30 ft | 24 kts | 122° |
| 2026-05-05 07:08 | 25.25976 | 55.36304 | 26 ft | 25 kts | 122° |
| 2026-05-05 07:08 | 25.25881 | 55.36472 | 27 ft | 26 kts | 122° |
| 2026-05-05 07:08 | 25.25783 | 55.36647 | 30 ft | 27 kts | 122° |
| 2026-05-05 07:09 | 25.25683 | 55.36825 | 26 ft | 28 kts | 122° |
| 2026-05-05 07:09 | 25.25578 | 55.37012 | 30 ft | 29 kts | 122° |
| 2026-05-05 07:09 | 25.25471 | 55.37202 | 29 ft | 30 kts | 121° |
| 2026-05-05 07:09 | 25.25362 | 55.37397 | 27 ft | 30 kts | 122° |
| 2026-05-05 07:10 | 25.25251 | 55.37593 | 27 ft | 30 kts | 122° |
| 2026-05-05 07:10 | 25.25138 | 55.37794 | 26 ft | 31 kts | 122° |
| 2026-05-05 07:10 | 25.25050 | 55.37950 | 32 ft | 10 kts | 121° |
| 2026-05-05 07:10 | 25.25013 | 55.38016 | 30 ft | 11 kts | 123° |
| 2026-05-05 07:11 | 25.24959 | 55.38037 | 27 ft | 8 kts | 199° |
| 2026-05-05 07:11 | 25.24912 | 55.38006 | 28 ft | 8 kts | 211° |
| 2026-05-05 07:11 | 25.24870 | 55.37974 | 29 ft | 8 kts | 224° |
| 2026-05-05 07:11 | 25.24863 | 55.37923 | 29 ft | 7 kts | 300° |
| 2026-05-05 07:12 | 25.24890 | 55.37874 | 29 ft | 11 kts | 301° |
| 2026-05-05 07:12 | 25.25000 | 55.37676 | 30 ft | 60 kts | 301° |
| 2026-05-05 07:12 | 25.25335 | 55.37073 | 29 ft | 122 kts | 301° |
| 2026-05-05 07:12 | 25.25879 | 55.36093 | 36 ft | 175 kts | 300° |
| 2026-05-05 07:13 | 25.26539 | 55.34911 | 720 ft | 177 kts | 301° |
| 2026-05-05 07:13 | 25.27207 | 55.33756 | 1401 ft | 184 kts | 302° |
| 2026-05-05 07:13 | 25.27901 | 55.32503 | 1845 ft | 201 kts | 302° |
| 2026-05-05 07:13 | 25.28644 | 55.31147 | 2453 ft | 207 kts | 302° |
| 2026-05-05 07:14 | 25.29204 | 55.29711 | 3220 ft | 207 kts | 280° |
| 2026-05-05 07:14 | 25.29032 | 55.28160 | 3974 ft | 206 kts | 250° |
| 2026-05-05 07:14 | 25.28456 | 55.26678 | 4620 ft | 212 kts | 243° |
| 2026-05-05 07:14 | 25.27802 | 55.25197 | 5309 ft | 217 kts | 244° |
| 2026-05-05 07:15 | 25.27131 | 55.23679 | 6022 ft | 222 kts | 244° |
| 2026-05-05 07:15 | 25.26460 | 55.22139 | 6829 ft | 222 kts | 244° |
| 2026-05-05 07:15 | 25.25781 | 55.20564 | 7467 ft | 235 kts | 244° |
| 2026-05-05 07:15 | 25.25025 | 55.18874 | 7941 ft | 253 kts | 239° |
| 2026-05-05 07:16 | 25.23856 | 55.17421 | 8569 ft | 261 kts | 212° |
| 2026-05-05 07:16 | 25.22153 | 55.16741 | 9214 ft | 266 kts | 183° |
| 2026-05-05 07:16 | 25.20287 | 55.16846 | 9895 ft | 270 kts | 164° |
| 2026-05-05 07:16 | 25.18577 | 55.17712 | 10525 ft | 275 kts | 140° |
| 2026-05-05 07:17 | 25.17309 | 55.19361 | 10898 ft | 291 kts | 120° |
| 2026-05-05 07:17 | 25.16339 | 55.21342 | 11439 ft | 301 kts | 116° |
| 2026-05-05 07:17 | 25.15380 | 55.23432 | 12089 ft | 308 kts | 116° |
| 2026-05-05 07:17 | 25.14385 | 55.25575 | 12783 ft | 315 kts | 117° |
| 2026-05-05 07:18 | 25.13375 | 55.27718 | 13492 ft | 320 kts | 117° |
| 2026-05-05 07:18 | 25.12331 | 55.29912 | 14155 ft | 324 kts | 118° |
| 2026-05-05 07:18 | 25.11271 | 55.32128 | 14798 ft | 328 kts | 118° |
| 2026-05-05 07:18 | 25.10266 | 55.34395 | 15464 ft | 331 kts | 115° |
| 2026-05-05 07:19 | 25.09307 | 55.36701 | 16130 ft | 335 kts | 115° |
| 2026-05-05 07:19 | 25.08336 | 55.39064 | 16802 ft | 338 kts | 115° |
| 2026-05-05 07:19 | 25.07363 | 55.41449 | 17467 ft | 342 kts | 114° |
| 2026-05-05 07:19 | 25.06415 | 55.43876 | 17901 ft | 354 kts | 114° |
| 2026-05-05 07:20 | 25.05423 | 55.46452 | 18151 ft | 370 kts | 114° |
| 2026-05-05 07:20 | 25.04405 | 55.49100 | 18385 ft | 385 kts | 114° |
| 2026-05-05 07:20 | 25.03336 | 55.51876 | 18623 ft | 399 kts | 114° |
| 2026-05-05 07:20 | 25.02217 | 55.54711 | 19012 ft | 407 kts | 116° |
| 2026-05-05 07:21 | 25.00872 | 55.57457 | 19488 ft | 411 kts | 121° |
| 2026-05-05 07:21 | 24.99909 | 55.59268 | 19829 ft | 413 kts | 122° |
| 2026-05-05 07:21 | 24.97938 | 55.62906 | 20511 ft | 418 kts | 122° |
| 2026-05-05 07:21 | 24.96432 | 55.65683 | 21034 ft | 421 kts | 122° |
| 2026-05-05 07:22 | 24.94917 | 55.68474 | 21562 ft | 425 kts | 122° |
| 2026-05-05 07:22 | 24.93865 | 55.70267 | 21877 ft | 427 kts | 126° |
| 2026-05-05 07:22 | 24.92138 | 55.72948 | 22390 ft | 430 kts | 127° |
| 2026-05-05 07:22 | 24.90374 | 55.75611 | 22873 ft | 433 kts | 127° |
| 2026-05-05 07:23 | 24.88574 | 55.78316 | 23371 ft | 436 kts | 127° |
| 2026-05-05 07:23 | 24.86769 | 55.81031 | 23739 ft | 440 kts | 127° |
| 2026-05-05 07:23 | 24.84964 | 55.83747 | 24131 ft | 444 kts | 128° |
| 2026-05-05 07:23 | 24.83116 | 55.86503 | 24560 ft | 445 kts | 128° |
| 2026-05-05 07:24 | 24.81275 | 55.89224 | 24933 ft | 449 kts | 128° |
| 2026-05-05 07:24 | 24.79385 | 55.92004 | 25320 ft | 452 kts | 129° |
| 2026-05-05 07:24 | 24.77351 | 55.94626 | 25672 ft | 454 kts | 135° |
| 2026-05-05 07:24 | 24.75142 | 55.97101 | 26031 ft | 457 kts | 138° |
| 2026-05-05 07:25 | 24.72830 | 55.99512 | 26414 ft | 459 kts | 139° |
| 2026-05-05 07:25 | 24.70452 | 56.01912 | 26771 ft | 462 kts | 140° |
| 2026-05-05 07:25 | 24.68070 | 56.04299 | 27134 ft | 466 kts | 140° |
| 2026-05-05 07:25 | 24.65687 | 56.06695 | 27492 ft | 469 kts | 140° |
| 2026-05-05 07:26 | 24.63297 | 56.09118 | 27868 ft | 472 kts | 140° |
| 2026-05-05 07:26 | 24.60873 | 56.11592 | 28237 ft | 475 kts | 139° |
| 2026-05-05 07:26 | 24.58466 | 56.14065 | 28579 ft | 479 kts | 138° |
| 2026-05-05 07:26 | 24.56154 | 56.16757 | 28908 ft | 484 kts | 134° |
| 2026-05-05 07:27 | 24.53897 | 56.19538 | 29262 ft | 487 kts | 134° |
| 2026-05-05 07:27 | 24.51679 | 56.22333 | 29605 ft | 490 kts | 133° |
| 2026-05-05 07:27 | 24.49437 | 56.25191 | 29923 ft | 493 kts | 133° |
| 2026-05-05 07:27 | 24.47213 | 56.28039 | 30183 ft | 496 kts | 133° |
| 2026-05-05 07:28 | 24.44949 | 56.30937 | 30444 ft | 499 kts | 133° |
| 2026-05-05 07:28 | 24.42698 | 56.33812 | 30698 ft | 501 kts | 133° |
| 2026-05-05 07:28 | 24.40426 | 56.36706 | 30945 ft | 504 kts | 133° |
| 2026-05-05 07:28 | 24.38122 | 56.39636 | 31209 ft | 506 kts | 133° |
| 2026-05-05 07:29 | 24.35824 | 56.42553 | 31468 ft | 509 kts | 133° |
| 2026-05-05 07:29 | 24.33495 | 56.45507 | 31743 ft | 510 kts | 133° |
| 2026-05-05 07:29 | 24.31174 | 56.48449 | 32128 ft | 510 kts | 133° |
| 2026-05-05 07:29 | 24.28900 | 56.51440 | 32513 ft | 510 kts | 130° |
| 2026-05-05 07:30 | 24.26774 | 56.54502 | 32891 ft | 511 kts | 129° |
| 2026-05-05 07:30 | 24.22620 | 56.60850 | 33610 ft | 512 kts | 128° |
| 2026-05-05 07:30 | 24.20561 | 56.64029 | 33945 ft | 512 kts | 128° |
| 2026-05-05 07:31 | 24.18488 | 56.67208 | 34280 ft | 511 kts | 128° |
| 2026-05-05 07:31 | 24.16405 | 56.70377 | 34644 ft | 510 kts | 128° |
| 2026-05-05 07:31 | 24.14329 | 56.73516 | 34998 ft | 508 kts | 129° |
| 2026-05-05 07:31 | 24.12270 | 56.76613 | 35331 ft | 507 kts | 129° |
| 2026-05-05 07:32 | 24.10187 | 56.79738 | 35661 ft | 507 kts | 129° |
| 2026-05-05 07:32 | 24.08101 | 56.82864 | 35993 ft | 506 kts | 129° |
| 2026-05-05 07:32 | 24.06048 | 56.85938 | 36279 ft | 506 kts | 129° |
| 2026-05-05 07:32 | 24.03976 | 56.89039 | 36605 ft | 505 kts | 129° |
| 2026-05-05 07:33 | 24.01901 | 56.92142 | 36929 ft | 504 kts | 129° |
| 2026-05-05 07:33 | 23.99828 | 56.95238 | 37231 ft | 503 kts | 129° |
| 2026-05-05 07:33 | 23.97763 | 56.98322 | 37554 ft | 502 kts | 129° |
| 2026-05-05 07:33 | 23.95702 | 57.01398 | 37846 ft | 501 kts | 130° |
| 2026-05-05 07:34 | 23.93637 | 57.04477 | 38142 ft | 501 kts | 130° |
| 2026-05-05 07:34 | 23.91575 | 57.07551 | 38422 ft | 500 kts | 130° |
| 2026-05-05 07:34 | 23.89544 | 57.10578 | 38672 ft | 499 kts | 130° |
| 2026-05-05 07:34 | 23.87481 | 57.13650 | 38813 ft | 500 kts | 130° |
| 2026-05-05 07:35 | 23.83368 | 57.19771 | 38819 ft | 497 kts | 129° |
| 2026-05-05 07:35 | 23.79300 | 57.25818 | 38828 ft | 495 kts | 130° |
| 2026-05-05 07:36 | 23.75209 | 57.31892 | 38822 ft | 495 kts | 130° |
| 2026-05-05 07:36 | 23.71092 | 57.37936 | 38829 ft | 495 kts | 131° |
| 2026-05-05 07:37 | 23.66832 | 57.43839 | 38821 ft | 495 kts | 132° |
| 2026-05-05 07:37 | 23.62557 | 57.49658 | 38821 ft | 494 kts | 132° |
| 2026-05-05 07:38 | 23.58266 | 57.55516 | 38837 ft | 493 kts | 132° |
| 2026-05-05 07:38 | 23.54039 | 57.61355 | 38830 ft | 494 kts | 128° |
| 2026-05-05 07:39 | 23.50933 | 57.68060 | 38828 ft | 500 kts | 108° |
| 2026-05-05 07:39 | 23.50245 | 57.71779 | 38837 ft | 503 kts | 96° |
| 2026-05-05 07:39 | 23.50236 | 57.75590 | 38837 ft | 503 kts | 83° |
| 2026-05-05 07:40 | 23.51342 | 57.83145 | 38823 ft | 505 kts | 78° |
| 2026-05-05 07:40 | 23.52743 | 57.90602 | 38823 ft | 506 kts | 78° |
| 2026-05-05 07:41 | 23.54162 | 57.98144 | 38812 ft | 506 kts | 78° |
| 2026-05-05 07:41 | 23.55526 | 58.05679 | 38796 ft | 507 kts | 78° |
| 2026-05-05 07:42 | 23.56859 | 58.13194 | 38801 ft | 507 kts | 78° |
| 2026-05-05 07:42 | 23.58190 | 58.20751 | 38804 ft | 507 kts | 78° |
| 2026-05-05 07:43 | 23.60016 | 58.28095 | 38802 ft | 504 kts | 68° |
| 2026-05-05 07:43 | 23.62628 | 58.35227 | 38801 ft | 504 kts | 65° |
| 2026-05-05 07:44 | 23.65359 | 58.42248 | 38799 ft | 504 kts | 65° |
| 2026-05-05 07:44 | 23.68118 | 58.49311 | 38793 ft | 505 kts | 65° |
| 2026-05-05 07:45 | 23.70842 | 58.56340 | 38794 ft | 504 kts | 65° |
| 2026-05-05 07:45 | 23.73566 | 58.63412 | 38793 ft | 505 kts | 65° |
| 2026-05-05 07:46 | 23.76270 | 58.70453 | 38796 ft | 504 kts | 65° |
| 2026-05-05 07:46 | 23.78986 | 58.77532 | 38796 ft | 504 kts | 65° |
| 2026-05-05 07:47 | 23.81681 | 58.84568 | 38798 ft | 504 kts | 65° |
| 2026-05-05 07:47 | 23.84391 | 58.91654 | 38798 ft | 505 kts | 65° |
| 2026-05-05 07:48 | 23.87102 | 58.98754 | 38798 ft | 505 kts | 65° |
| 2026-05-05 07:48 | 23.89790 | 59.05804 | 38802 ft | 504 kts | 65° |
| 2026-05-05 07:49 | 23.92488 | 59.12886 | 38804 ft | 505 kts | 65° |
| 2026-05-05 07:49 | 23.95432 | 59.19861 | 38807 ft | 504 kts | 62° |
| 2026-05-05 07:50 | 23.98537 | 59.26694 | 38807 ft | 504 kts | 61° |
| 2026-05-05 07:50 | 24.01660 | 59.33573 | 38808 ft | 504 kts | 62° |
| 2026-05-05 07:51 | 24.04752 | 59.40470 | 38812 ft | 504 kts | 62° |
| 2026-05-05 07:51 | 24.07825 | 59.47372 | 38813 ft | 505 kts | 62° |
| 2026-05-05 07:52 | 24.10897 | 59.54291 | 38812 ft | 505 kts | 62° |
| 2026-05-05 07:52 | 24.13943 | 59.61163 | 38815 ft | 505 kts | 62° |
| 2026-05-05 07:53 | 24.17014 | 59.68103 | 38813 ft | 505 kts | 62° |
| 2026-05-05 07:53 | 24.20060 | 59.74993 | 38810 ft | 505 kts | 62° |
| 2026-05-05 07:54 | 24.23131 | 59.81951 | 38814 ft | 506 kts | 62° |
| 2026-05-05 07:54 | 24.26177 | 59.88863 | 38816 ft | 507 kts | 62° |
| 2026-05-05 07:55 | 24.29249 | 59.95843 | 38819 ft | 507 kts | 62° |
| 2026-05-05 07:55 | 24.32314 | 60.02819 | 38820 ft | 507 kts | 62° |
| 2026-05-05 07:56 | 24.35357 | 60.09756 | 38816 ft | 507 kts | 62° |
| 2026-05-05 07:56 | 24.38414 | 60.16732 | 38815 ft | 507 kts | 62° |
| 2026-05-05 07:57 | 24.41476 | 60.23729 | 38817 ft | 507 kts | 62° |
| 2026-05-05 07:57 | 24.44510 | 60.30673 | 38813 ft | 507 kts | 62° |
| 2026-05-05 07:58 | 24.47559 | 60.37663 | 38815 ft | 507 kts | 62° |
| 2026-05-05 07:58 | 24.50604 | 60.44652 | 38817 ft | 507 kts | 62° |
| 2026-05-05 07:59 | 24.53646 | 60.51649 | 38820 ft | 507 kts | 62° |
| 2026-05-05 07:59 | 24.56683 | 60.58643 | 38821 ft | 507 kts | 62° |
| 2026-05-05 08:00 | 24.59705 | 60.65614 | 38823 ft | 508 kts | 62° |
| 2026-05-05 08:00 | 24.62741 | 60.72635 | 38823 ft | 508 kts | 62° |
| 2026-05-05 08:01 | 24.65772 | 60.79655 | 38821 ft | 508 kts | 62° |
| 2026-05-05 08:01 | 24.68781 | 60.86636 | 38821 ft | 508 kts | 62° |
| 2026-05-05 08:02 | 24.71788 | 60.93691 | 38821 ft | 508 kts | 63° |
| 2026-05-05 08:02 | 24.74676 | 61.00811 | 38824 ft | 510 kts | 64° |
| 2026-05-05 08:03 | 24.77520 | 61.07922 | 38823 ft | 511 kts | 63° |
| 2026-05-05 08:03 | 24.80389 | 61.15083 | 38826 ft | 511 kts | 63° |
| 2026-05-05 08:04 | 24.83249 | 61.22203 | 38823 ft | 511 kts | 63° |
| 2026-05-05 08:04 | 24.86126 | 61.29369 | 38826 ft | 511 kts | 63° |
| 2026-05-05 08:05 | 24.89004 | 61.36550 | 38826 ft | 511 kts | 63° |
| 2026-05-05 08:05 | 24.91856 | 61.43678 | 38823 ft | 511 kts | 63° |
| 2026-05-05 08:06 | 24.94736 | 61.50846 | 38823 ft | 511 kts | 63° |
| 2026-05-05 08:06 | 24.97636 | 61.57973 | 38823 ft | 511 kts | 63° |
| 2026-05-05 08:07 | 25.00548 | 61.65127 | 38823 ft | 511 kts | 63° |
| 2026-05-05 08:07 | 25.03439 | 61.72252 | 38826 ft | 511 kts | 63° |
| 2026-05-05 08:08 | 25.06624 | 61.79241 | 38815 ft | 506 kts | 52° |
| 2026-05-05 08:08 | 25.10995 | 61.85198 | 38815 ft | 501 kts | 44° |
| 2026-05-05 08:09 | 25.15673 | 61.90914 | 38815 ft | 501 kts | 43° |
| 2026-05-05 08:09 | 25.20402 | 61.96580 | 38815 ft | 501 kts | 43° |
| 2026-05-05 08:10 | 25.25089 | 62.02233 | 38811 ft | 501 kts | 43° |
| 2026-05-05 08:10 | 25.29005 | 62.06988 | 38810 ft | 502 kts | 43° |
| 2026-05-05 08:11 | 25.34470 | 62.13646 | 38810 ft | 502 kts | 43° |
| 2026-05-05 08:11 | 25.38376 | 62.18412 | 38809 ft | 502 kts | 43° |
| 2026-05-05 08:12 | 25.43080 | 62.24157 | 38805 ft | 502 kts | 43° |
| 2026-05-05 08:12 | 25.47775 | 62.29898 | 38807 ft | 502 kts | 43° |
| 2026-05-05 08:13 | 25.52437 | 62.35604 | 38799 ft | 502 kts | 43° |
| 2026-05-05 08:13 | 25.57121 | 62.41345 | 38799 ft | 502 kts | 43° |
| 2026-05-05 08:14 | 25.61820 | 62.47112 | 38799 ft | 502 kts | 43° |
| 2026-05-05 08:14 | 25.66498 | 62.52860 | 38804 ft | 502 kts | 43° |
| 2026-05-05 08:15 | 25.71162 | 62.58598 | 38796 ft | 503 kts | 43° |
| 2026-05-05 08:15 | 25.75839 | 62.64359 | 38795 ft | 503 kts | 43° |
| 2026-05-05 08:16 | 25.80515 | 62.70127 | 38789 ft | 503 kts | 43° |
| 2026-05-05 08:16 | 25.85189 | 62.75899 | 38787 ft | 503 kts | 43° |
| 2026-05-05 08:17 | 25.89867 | 62.81684 | 38787 ft | 503 kts | 43° |
| 2026-05-05 08:17 | 25.94546 | 62.87477 | 38811 ft | 503 kts | 43° |
| 2026-05-05 08:18 | 25.99183 | 62.93226 | 38798 ft | 503 kts | 43° |
| 2026-05-05 08:18 | 26.03866 | 62.99029 | 38795 ft | 503 kts | 43° |
| 2026-05-05 08:19 | 26.08544 | 63.04823 | 38798 ft | 503 kts | 43° |
| 2026-05-05 08:19 | 26.13219 | 63.10621 | 38807 ft | 503 kts | 43° |
| 2026-05-05 08:20 | 26.17862 | 63.16389 | 38815 ft | 503 kts | 43° |
| 2026-05-05 08:20 | 26.22533 | 63.22198 | 38813 ft | 503 kts | 43° |
| 2026-05-05 08:21 | 26.27206 | 63.28018 | 38834 ft | 503 kts | 43° |
| 2026-05-05 08:21 | 26.31845 | 63.33803 | 38847 ft | 503 kts | 43° |
| 2026-05-05 08:22 | 26.36511 | 63.39630 | 38829 ft | 502 kts | 43° |
| 2026-05-05 08:22 | 26.41163 | 63.45447 | 38848 ft | 502 kts | 43° |
| 2026-05-05 08:23 | 26.45783 | 63.51230 | 38849 ft | 502 kts | 43° |
| 2026-05-05 08:23 | 26.50437 | 63.57065 | 38849 ft | 502 kts | 43° |
| 2026-05-05 08:24 | 26.55087 | 63.62902 | 38863 ft | 502 kts | 43° |
| 2026-05-05 08:24 | 26.59722 | 63.68728 | 38866 ft | 502 kts | 43° |
| 2026-05-05 08:25 | 26.64342 | 63.74542 | 38872 ft | 502 kts | 43° |
| 2026-05-05 08:25 | 26.68980 | 63.80387 | 38883 ft | 502 kts | 42° |
| 2026-05-05 08:26 | 26.73587 | 63.86202 | 38870 ft | 501 kts | 42° |
| 2026-05-05 08:26 | 26.78217 | 63.92053 | 38873 ft | 501 kts | 42° |
| 2026-05-05 08:27 | 26.82842 | 63.97904 | 38878 ft | 501 kts | 42° |
| 2026-05-05 08:27 | 26.87462 | 64.03758 | 38886 ft | 501 kts | 42° |
| 2026-05-05 08:28 | 26.92038 | 64.09609 | 38883 ft | 504 kts | 46° |
| 2026-05-05 08:28 | 26.95512 | 64.16505 | 38892 ft | 517 kts | 68° |
| 2026-05-05 08:29 | 26.97287 | 64.24394 | 38895 ft | 522 kts | 75° |
| 2026-05-05 08:30 | 26.99310 | 64.36383 | 38897 ft | 524 kts | 76° |
| 2026-05-05 08:30 | 27.00652 | 64.44439 | 38897 ft | 524 kts | 76° |
| 2026-05-05 08:31 | 27.02015 | 64.52421 | 38903 ft | 524 kts | 76° |
| 2026-05-05 08:31 | 27.03398 | 64.60448 | 38901 ft | 524 kts | 76° |
| 2026-05-05 08:32 | 27.04777 | 64.68475 | 38896 ft | 524 kts | 76° |
| 2026-05-05 08:32 | 27.06151 | 64.76505 | 38894 ft | 523 kts | 76° |
| 2026-05-05 08:33 | 27.07511 | 64.84490 | 38897 ft | 523 kts | 76° |
| 2026-05-05 08:33 | 27.08876 | 64.92540 | 38898 ft | 523 kts | 76° |
| 2026-05-05 08:34 | 27.10233 | 65.00566 | 38895 ft | 524 kts | 76° |
| 2026-05-05 08:34 | 27.11580 | 65.08560 | 38891 ft | 523 kts | 76° |
| 2026-05-05 08:35 | 27.12929 | 65.16603 | 38889 ft | 523 kts | 76° |
| 2026-05-05 08:35 | 27.14274 | 65.24640 | 38886 ft | 523 kts | 76° |
| 2026-05-05 08:36 | 27.15604 | 65.32623 | 38889 ft | 523 kts | 76° |
| 2026-05-05 08:36 | 27.16942 | 65.40681 | 38882 ft | 523 kts | 76° |
| 2026-05-05 08:37 | 27.18273 | 65.48729 | 38882 ft | 523 kts | 76° |
| 2026-05-05 08:37 | 27.19591 | 65.56721 | 38883 ft | 523 kts | 76° |
| 2026-05-05 08:38 | 27.20910 | 65.64755 | 38873 ft | 523 kts | 76° |
| 2026-05-05 08:38 | 27.22227 | 65.72809 | 38878 ft | 524 kts | 76° |
| 2026-05-05 08:39 | 27.23539 | 65.80863 | 38871 ft | 524 kts | 76° |
| 2026-05-05 08:39 | 27.24840 | 65.88877 | 38871 ft | 523 kts | 76° |
| 2026-05-05 08:40 | 27.26146 | 65.96945 | 38875 ft | 524 kts | 76° |
| 2026-05-05 08:40 | 27.27448 | 66.05026 | 38857 ft | 524 kts | 76° |
| 2026-05-05 08:41 | 27.28742 | 66.13093 | 38861 ft | 525 kts | 76° |
| 2026-05-05 08:41 | 27.30026 | 66.21131 | 38864 ft | 525 kts | 76° |
| 2026-05-05 08:42 | 27.31314 | 66.29222 | 38857 ft | 525 kts | 76° |
| 2026-05-05 08:42 | 27.32590 | 66.37276 | 38863 ft | 525 kts | 76° |
| 2026-05-05 08:43 | 27.33867 | 66.45360 | 38868 ft | 525 kts | 76° |
| 2026-05-05 08:43 | 27.35142 | 66.53459 | 38869 ft | 525 kts | 76° |
| 2026-05-05 08:44 | 27.36411 | 66.61555 | 38872 ft | 525 kts | 76° |
| 2026-05-05 08:44 | 27.37668 | 66.69608 | 38871 ft | 526 kts | 76° |
| 2026-05-05 08:45 | 27.38930 | 66.77730 | 38877 ft | 526 kts | 76° |
| 2026-05-05 08:45 | 27.40187 | 66.85842 | 38876 ft | 525 kts | 76° |
| 2026-05-05 08:46 | 27.41431 | 66.93901 | 38879 ft | 525 kts | 76° |
| 2026-05-05 08:46 | 27.42678 | 67.02019 | 38881 ft | 525 kts | 76° |
| 2026-05-05 08:47 | 27.43914 | 67.10089 | 38883 ft | 525 kts | 77° |
| 2026-05-05 08:47 | 27.45151 | 67.18207 | 38865 ft | 525 kts | 76° |
| 2026-05-05 08:48 | 27.46425 | 67.26316 | 38864 ft | 525 kts | 75° |
| 2026-05-05 08:48 | 27.47817 | 67.34341 | 38845 ft | 524 kts | 75° |
| 2026-05-05 08:49 | 27.49240 | 67.42415 | 38831 ft | 525 kts | 75° |
| 2026-05-05 08:49 | 27.50638 | 67.50445 | 38829 ft | 525 kts | 75° |
| 2026-05-05 08:50 | 27.52030 | 67.58532 | 38814 ft | 525 kts | 75° |
| 2026-05-05 08:50 | 27.53414 | 67.66622 | 38809 ft | 524 kts | 75° |
| 2026-05-05 08:51 | 27.54785 | 67.74663 | 38807 ft | 524 kts | 75° |
| 2026-05-05 08:51 | 27.56159 | 67.82747 | 38803 ft | 525 kts | 75° |
| 2026-05-05 08:52 | 27.57528 | 67.90832 | 38800 ft | 525 kts | 75° |
| 2026-05-05 08:52 | 27.58887 | 67.98886 | 38797 ft | 525 kts | 75° |
| 2026-05-05 08:53 | 27.60242 | 68.06948 | 38795 ft | 525 kts | 75° |
| 2026-05-05 08:53 | 27.61598 | 68.15041 | 38797 ft | 525 kts | 75° |
| 2026-05-05 08:54 | 27.62948 | 68.23136 | 38795 ft | 525 kts | 75° |
| 2026-05-05 08:54 | 27.64295 | 68.31236 | 38796 ft | 525 kts | 75° |
| 2026-05-05 08:55 | 27.65629 | 68.39292 | 38793 ft | 525 kts | 75° |
| 2026-05-05 08:55 | 27.66965 | 68.47389 | 38793 ft | 525 kts | 75° |
| 2026-05-05 08:56 | 27.68298 | 68.55494 | 38801 ft | 525 kts | 75° |
| 2026-05-05 08:56 | 27.69628 | 68.63614 | 38798 ft | 525 kts | 75° |
| 2026-05-05 08:57 | 27.70948 | 68.71709 | 38799 ft | 525 kts | 75° |
| 2026-05-05 08:57 | 27.72584 | 68.79708 | 38798 ft | 517 kts | 64° |
| 2026-05-05 08:58 | 27.75501 | 68.87061 | 38806 ft | 512 kts | 58° |
| 2026-05-05 08:58 | 27.78141 | 68.93041 | 38796 ft | 511 kts | 57° |
| 2026-05-05 08:59 | 27.81916 | 69.01410 | 38799 ft | 511 kts | 57° |
| 2026-05-05 08:59 | 27.85106 | 69.08540 | 38801 ft | 511 kts | 57° |
| 2026-05-05 09:00 | 27.87765 | 69.14528 | 38801 ft | 511 kts | 57° |
| 2026-05-05 09:00 | 27.90953 | 69.21737 | 38809 ft | 511 kts | 57° |
| 2026-05-05 09:01 | 27.94122 | 69.28953 | 38802 ft | 511 kts | 57° |
| 2026-05-05 09:01 | 27.97246 | 69.36105 | 38798 ft | 510 kts | 57° |
| 2026-05-05 09:02 | 28.00395 | 69.43321 | 38798 ft | 510 kts | 57° |
| 2026-05-05 09:02 | 28.03542 | 69.50543 | 38804 ft | 510 kts | 57° |
| 2026-05-05 09:03 | 28.06686 | 69.57768 | 38802 ft | 510 kts | 57° |
| 2026-05-05 09:03 | 28.09800 | 69.64938 | 38801 ft | 510 kts | 57° |
| 2026-05-05 09:04 | 28.12933 | 69.72164 | 38804 ft | 510 kts | 57° |
| 2026-05-05 09:04 | 28.16042 | 69.79349 | 38804 ft | 510 kts | 57° |
| 2026-05-05 09:05 | 28.19165 | 69.86576 | 38819 ft | 510 kts | 57° |
| 2026-05-05 09:05 | 28.22284 | 69.93811 | 38812 ft | 510 kts | 57° |
| 2026-05-05 09:06 | 28.25399 | 70.01047 | 38810 ft | 510 kts | 57° |
| 2026-05-05 09:06 | 28.28514 | 70.08298 | 38812 ft | 510 kts | 57° |
| 2026-05-05 09:07 | 28.31602 | 70.15496 | 38812 ft | 510 kts | 57° |
| 2026-05-05 09:07 | 28.34702 | 70.22744 | 38821 ft | 511 kts | 58° |
| 2026-05-05 09:08 | 28.36750 | 70.30573 | 38831 ft | 526 kts | 77° |
| 2026-05-05 09:08 | 28.37512 | 70.38885 | 38830 ft | 530 kts | 81° |
| 2026-05-05 09:09 | 28.38007 | 70.47203 | 38810 ft | 531 kts | 82° |
| 2026-05-05 09:09 | 28.38482 | 70.55584 | 38823 ft | 530 kts | 82° |
| 2026-05-05 09:10 | 28.38982 | 70.63903 | 38816 ft | 531 kts | 82° |
| 2026-05-05 09:10 | 28.39499 | 70.72274 | 38822 ft | 531 kts | 82° |
| 2026-05-05 09:11 | 28.40016 | 70.80663 | 38828 ft | 531 kts | 82° |
| 2026-05-05 09:11 | 28.40527 | 70.89036 | 38825 ft | 531 kts | 82° |
| 2026-05-05 09:12 | 28.41027 | 70.97349 | 38819 ft | 530 kts | 82° |
| 2026-05-05 09:12 | 28.41525 | 71.05717 | 38817 ft | 530 kts | 82° |
| 2026-05-05 09:13 | 28.42017 | 71.14076 | 38819 ft | 530 kts | 82° |
| 2026-05-05 09:13 | 28.42506 | 71.22457 | 38823 ft | 531 kts | 82° |
| 2026-05-05 09:14 | 28.42986 | 71.30773 | 38821 ft | 531 kts | 82° |
| 2026-05-05 09:14 | 28.43465 | 71.39167 | 38817 ft | 531 kts | 82° |
| 2026-05-05 09:15 | 28.43938 | 71.47548 | 38817 ft | 531 kts | 82° |
| 2026-05-05 09:15 | 28.44403 | 71.55869 | 38827 ft | 531 kts | 82° |
| 2026-05-05 09:16 | 28.44865 | 71.64251 | 38818 ft | 530 kts | 82° |
| 2026-05-05 09:16 | 28.45322 | 71.72617 | 38821 ft | 530 kts | 82° |
| 2026-05-05 09:17 | 28.45774 | 71.80980 | 38815 ft | 530 kts | 82° |
| 2026-05-05 09:17 | 28.46217 | 71.89290 | 38813 ft | 530 kts | 82° |
| 2026-05-05 09:18 | 28.46658 | 71.97652 | 38816 ft | 529 kts | 82° |
| 2026-05-05 09:18 | 28.47093 | 72.05992 | 38812 ft | 528 kts | 82° |
| 2026-05-05 09:19 | 28.47523 | 72.14334 | 38812 ft | 528 kts | 82° |
| 2026-05-05 09:19 | 28.47913 | 72.22686 | 38810 ft | 531 kts | 86° |
| 2026-05-05 09:20 | 28.47150 | 72.31017 | 38811 ft | 534 kts | 96° |
| 2026-05-05 09:20 | 28.45945 | 72.39366 | 38807 ft | 535 kts | 97° |
| 2026-05-05 09:21 | 28.44650 | 72.47706 | 38806 ft | 535 kts | 97° |
| 2026-05-05 09:21 | 28.43362 | 72.56042 | 38808 ft | 535 kts | 97° |
| 2026-05-05 09:22 | 28.42095 | 72.64330 | 38809 ft | 535 kts | 97° |
| 2026-05-05 09:22 | 28.40822 | 72.72673 | 38797 ft | 534 kts | 97° |
| 2026-05-05 09:23 | 28.39552 | 72.80961 | 38806 ft | 534 kts | 97° |
| 2026-05-05 09:23 | 28.38271 | 72.89290 | 38807 ft | 534 kts | 97° |
| 2026-05-05 09:24 | 28.36986 | 72.97604 | 38816 ft | 534 kts | 97° |
| 2026-05-05 09:24 | 28.35705 | 73.05856 | 38808 ft | 533 kts | 97° |
| 2026-05-05 09:25 | 28.34410 | 73.14157 | 38805 ft | 533 kts | 97° |
| 2026-05-05 09:25 | 28.33114 | 73.22440 | 38809 ft | 533 kts | 97° |
| 2026-05-05 09:26 | 28.31808 | 73.30747 | 38813 ft | 533 kts | 97° |
| 2026-05-05 09:26 | 28.30507 | 73.38988 | 38812 ft | 532 kts | 97° |
| 2026-05-05 09:27 | 28.29196 | 73.47263 | 38812 ft | 532 kts | 98° |
| 2026-05-05 09:27 | 28.27878 | 73.55549 | 38808 ft | 532 kts | 98° |
| 2026-05-05 09:28 | 28.26558 | 73.63811 | 38811 ft | 532 kts | 98° |
| 2026-05-05 09:28 | 28.25237 | 73.72045 | 38816 ft | 532 kts | 98° |
| 2026-05-05 09:29 | 28.23905 | 73.80314 | 38819 ft | 532 kts | 98° |
| 2026-05-05 09:29 | 28.22578 | 73.88524 | 38820 ft | 532 kts | 98° |
| 2026-05-05 09:30 | 28.21238 | 73.96783 | 38825 ft | 532 kts | 98° |
| 2026-05-05 09:30 | 28.19892 | 74.05045 | 38828 ft | 532 kts | 98° |
| 2026-05-05 09:31 | 28.19180 | 74.13274 | 38841 ft | 525 kts | 84° |
| 2026-05-05 09:31 | 28.19569 | 74.21531 | 38836 ft | 524 kts | 82° |
| 2026-05-05 09:32 | 28.20164 | 74.29771 | 38831 ft | 523 kts | 81° |
| 2026-05-05 09:32 | 28.20773 | 74.37959 | 38839 ft | 524 kts | 81° |
| 2026-05-05 09:33 | 28.21360 | 74.46204 | 38841 ft | 524 kts | 81° |
| 2026-05-05 09:33 | 28.21929 | 74.54457 | 38835 ft | 524 kts | 81° |
| 2026-05-05 09:34 | 28.22484 | 74.62654 | 38839 ft | 524 kts | 81° |
| 2026-05-05 09:34 | 28.23039 | 74.70912 | 38836 ft | 524 kts | 81° |
| 2026-05-05 09:35 | 28.23590 | 74.79167 | 38840 ft | 524 kts | 81° |
| 2026-05-05 09:35 | 28.24404 | 74.91499 | 38839 ft | 524 kts | 81° |
| 2026-05-05 09:36 | 28.24942 | 74.99760 | 38838 ft | 524 kts | 82° |
| 2026-05-05 09:36 | 28.25471 | 75.07955 | 38857 ft | 524 kts | 82° |
| 2026-05-05 09:37 | 28.26001 | 75.16218 | 38846 ft | 525 kts | 82° |
| 2026-05-05 09:37 | 28.26526 | 75.24492 | 38848 ft | 526 kts | 82° |
| 2026-05-05 09:38 | 28.27043 | 75.32727 | 38848 ft | 526 kts | 82° |
| 2026-05-05 09:38 | 28.27558 | 75.41014 | 38853 ft | 526 kts | 82° |
| 2026-05-05 09:39 | 28.28068 | 75.49297 | 38855 ft | 526 kts | 82° |
| 2026-05-05 09:39 | 28.28574 | 75.57603 | 38855 ft | 526 kts | 82° |
| 2026-05-05 09:40 | 28.29071 | 75.65834 | 38855 ft | 526 kts | 82° |
| 2026-05-05 09:40 | 28.29568 | 75.74144 | 38852 ft | 526 kts | 82° |
| 2026-05-05 09:41 | 28.30058 | 75.82433 | 38854 ft | 527 kts | 82° |
| 2026-05-05 09:41 | 28.30541 | 75.90689 | 38851 ft | 527 kts | 82° |
| 2026-05-05 09:42 | 28.31023 | 75.99003 | 38851 ft | 527 kts | 82° |
| 2026-05-05 09:42 | 28.31499 | 76.07315 | 38857 ft | 527 kts | 82° |
| 2026-05-05 09:43 | 28.31970 | 76.15620 | 38871 ft | 527 kts | 82° |
| 2026-05-05 09:43 | 28.32437 | 76.23938 | 38862 ft | 527 kts | 82° |
| 2026-05-05 09:44 | 28.32894 | 76.32187 | 38862 ft | 526 kts | 82° |
| 2026-05-05 09:44 | 28.33349 | 76.40488 | 38878 ft | 527 kts | 82° |
| 2026-05-05 09:45 | 28.33724 | 76.47387 | 38876 ft | 527 kts | 82° |
| 2026-05-05 09:45 | 28.34171 | 76.55694 | 38898 ft | 527 kts | 83° |
| 2026-05-05 09:46 | 28.34454 | 76.64020 | 38896 ft | 530 kts | 91° |
| 2026-05-05 09:46 | 28.33614 | 76.69509 | 38905 ft | 533 kts | 106° |
| 2026-05-05 09:46 | 28.32879 | 76.72167 | 38902 ft | 533 kts | 108° |
| 2026-05-05 09:47 | 28.30338 | 76.80110 | 38876 ft | 534 kts | 111° |
| 2026-05-05 09:47 | 28.27632 | 76.87948 | 38903 ft | 535 kts | 111° |
| 2026-05-05 09:48 | 28.24925 | 76.95803 | 38902 ft | 534 kts | 111° |
| 2026-05-05 09:48 | 28.22244 | 77.03668 | 38902 ft | 533 kts | 111° |
| 2026-05-05 09:49 | 28.19589 | 77.11491 | 38897 ft | 533 kts | 111° |
| 2026-05-05 09:49 | 28.16920 | 77.19344 | 38900 ft | 533 kts | 111° |
| 2026-05-05 09:50 | 28.14242 | 77.27202 | 38899 ft | 533 kts | 111° |
| 2026-05-05 09:50 | 28.11569 | 77.35025 | 38894 ft | 531 kts | 111° |
| 2026-05-05 09:51 | 28.08914 | 77.42779 | 38894 ft | 530 kts | 111° |
| 2026-05-05 09:51 | 28.06234 | 77.50589 | 38894 ft | 531 kts | 111° |
| 2026-05-05 09:52 | 28.03567 | 77.58342 | 38901 ft | 532 kts | 112° |
| 2026-05-05 09:52 | 28.00874 | 77.66158 | 38895 ft | 531 kts | 112° |
| 2026-05-05 09:53 | 27.98205 | 77.73887 | 38903 ft | 530 kts | 112° |
| 2026-05-05 09:53 | 27.95516 | 77.81656 | 38905 ft | 530 kts | 112° |
| 2026-05-05 09:54 | 27.92821 | 77.89425 | 38901 ft | 530 kts | 112° |
| 2026-05-05 09:54 | 27.90123 | 77.97188 | 38911 ft | 530 kts | 112° |
| 2026-05-05 09:55 | 27.87422 | 78.04944 | 38897 ft | 529 kts | 112° |
| 2026-05-05 09:55 | 27.84717 | 78.12693 | 38889 ft | 529 kts | 112° |
| 2026-05-05 09:56 | 27.82007 | 78.20359 | 38889 ft | 529 kts | 114° |
| 2026-05-05 09:56 | 27.79142 | 78.28035 | 38881 ft | 529 kts | 114° |
| 2026-05-05 09:57 | 27.76264 | 78.35635 | 38878 ft | 529 kts | 114° |
| 2026-05-05 09:57 | 27.73373 | 78.43284 | 38873 ft | 529 kts | 114° |
| 2026-05-05 09:58 | 27.70489 | 78.50927 | 38872 ft | 529 kts | 114° |
| 2026-05-05 09:58 | 27.67622 | 78.58524 | 38873 ft | 529 kts | 114° |
| 2026-05-05 09:59 | 27.64731 | 78.66170 | 38873 ft | 529 kts | 114° |
| 2026-05-05 09:59 | 27.61836 | 78.73807 | 38860 ft | 528 kts | 115° |
| 2026-05-05 10:00 | 27.58943 | 78.81425 | 38872 ft | 527 kts | 115° |
| 2026-05-05 10:00 | 27.56070 | 78.88976 | 38873 ft | 528 kts | 115° |
| 2026-05-05 10:01 | 27.53161 | 78.96606 | 38869 ft | 528 kts | 115° |
| 2026-05-05 10:01 | 27.50259 | 79.04201 | 38871 ft | 528 kts | 115° |
| 2026-05-05 10:02 | 27.47368 | 79.11755 | 38875 ft | 526 kts | 115° |
| 2026-05-05 10:02 | 27.44465 | 79.19326 | 38874 ft | 525 kts | 115° |
| 2026-05-05 10:03 | 27.41576 | 79.26843 | 38874 ft | 525 kts | 115° |
| 2026-05-05 10:03 | 27.38668 | 79.34397 | 38876 ft | 525 kts | 115° |
| 2026-05-05 10:04 | 27.35764 | 79.41924 | 38863 ft | 525 kts | 115° |
| 2026-05-05 10:04 | 27.32861 | 79.49417 | 38876 ft | 524 kts | 116° |
| 2026-05-05 10:05 | 27.29884 | 79.56891 | 38877 ft | 522 kts | 117° |
| 2026-05-05 10:05 | 27.26881 | 79.64341 | 38881 ft | 521 kts | 117° |
| 2026-05-05 10:06 | 27.23903 | 79.71726 | 38879 ft | 522 kts | 117° |
| 2026-05-05 10:06 | 27.20905 | 79.79165 | 38881 ft | 522 kts | 117° |
| 2026-05-05 10:07 | 27.17902 | 79.86610 | 38876 ft | 521 kts | 117° |
| 2026-05-05 10:07 | 27.14927 | 79.93973 | 38876 ft | 521 kts | 117° |
| 2026-05-05 10:08 | 27.11928 | 80.01381 | 38873 ft | 521 kts | 117° |
| 2026-05-05 10:08 | 27.08923 | 80.08788 | 38867 ft | 522 kts | 117° |
| 2026-05-05 10:09 | 27.05910 | 80.16203 | 38864 ft | 522 kts | 117° |
| 2026-05-05 10:09 | 27.02892 | 80.23617 | 38873 ft | 521 kts | 117° |
| 2026-05-05 10:10 | 26.99896 | 80.30965 | 38877 ft | 520 kts | 117° |
| 2026-05-05 10:10 | 26.96878 | 80.38350 | 38875 ft | 520 kts | 117° |
| 2026-05-05 10:11 | 26.93859 | 80.45726 | 38877 ft | 520 kts | 117° |
| 2026-05-05 10:11 | 26.90838 | 80.53094 | 38876 ft | 520 kts | 117° |
| 2026-05-05 10:12 | 26.87831 | 80.60414 | 38872 ft | 518 kts | 117° |
| 2026-05-05 10:12 | 26.84808 | 80.67761 | 38860 ft | 517 kts | 117° |
| 2026-05-05 10:13 | 26.81789 | 80.75083 | 38859 ft | 518 kts | 117° |
| 2026-05-05 10:13 | 26.78780 | 80.82368 | 38856 ft | 519 kts | 117° |
| 2026-05-05 10:14 | 26.76630 | 80.90083 | 38856 ft | 523 kts | 98° |
| 2026-05-05 10:14 | 26.76490 | 80.94143 | 38858 ft | 523 kts | 87° |
| 2026-05-05 10:14 | 26.76750 | 80.98206 | 38857 ft | 523 kts | 84° |
| 2026-05-05 10:15 | 26.77601 | 81.06256 | 38861 ft | 524 kts | 82° |
| 2026-05-05 10:15 | 26.78569 | 81.14340 | 38865 ft | 524 kts | 82° |
| 2026-05-05 10:16 | 26.79500 | 81.22427 | 38867 ft | 524 kts | 82° |
| 2026-05-05 10:16 | 26.80392 | 81.30526 | 38870 ft | 524 kts | 83° |
| 2026-05-05 10:17 | 26.81264 | 81.38586 | 38869 ft | 523 kts | 83° |
| 2026-05-05 10:17 | 26.82134 | 81.46678 | 38875 ft | 523 kts | 83° |
| 2026-05-05 10:18 | 26.83001 | 81.54779 | 38857 ft | 522 kts | 83° |
| 2026-05-05 10:18 | 26.83857 | 81.62807 | 38865 ft | 523 kts | 83° |
| 2026-05-05 10:19 | 26.84724 | 81.70916 | 38856 ft | 522 kts | 84° |
| 2026-05-05 10:19 | 26.85576 | 81.78955 | 38861 ft | 522 kts | 84° |
| 2026-05-05 10:20 | 26.86418 | 81.87032 | 38849 ft | 522 kts | 84° |
| 2026-05-05 10:20 | 26.87256 | 81.95101 | 38853 ft | 522 kts | 84° |
| 2026-05-05 10:21 | 26.88095 | 82.03197 | 38848 ft | 522 kts | 84° |
| 2026-05-05 10:21 | 26.88930 | 82.11296 | 38855 ft | 522 kts | 84° |
| 2026-05-05 10:22 | 26.89759 | 82.19384 | 38856 ft | 523 kts | 84° |
| 2026-05-05 10:22 | 26.90585 | 82.27490 | 38853 ft | 523 kts | 84° |
| 2026-05-05 10:23 | 26.91403 | 82.35548 | 38849 ft | 523 kts | 84° |
| 2026-05-05 10:23 | 26.92220 | 82.43647 | 38854 ft | 524 kts | 85° |
| 2026-05-05 10:24 | 26.93042 | 82.51800 | 38850 ft | 529 kts | 84° |
| 2026-05-05 10:24 | 26.93849 | 82.59962 | 38859 ft | 530 kts | 84° |
| 2026-05-05 10:25 | 26.94662 | 82.68186 | 38853 ft | 530 kts | 84° |
| 2026-05-05 10:25 | 26.95470 | 82.76395 | 38860 ft | 529 kts | 84° |
| 2026-05-05 10:26 | 26.96272 | 82.84588 | 38861 ft | 530 kts | 84° |
| 2026-05-05 10:26 | 26.97071 | 82.92804 | 38867 ft | 531 kts | 84° |
| 2026-05-05 10:27 | 26.97870 | 83.01024 | 38866 ft | 531 kts | 84° |
| 2026-05-05 10:27 | 26.98706 | 83.09245 | 38863 ft | 531 kts | 84° |
| 2026-05-05 10:28 | 26.99555 | 83.17473 | 38864 ft | 531 kts | 84° |
| 2026-05-05 10:28 | 27.00393 | 83.25671 | 38867 ft | 530 kts | 84° |
| 2026-05-05 10:29 | 27.01223 | 83.33867 | 38875 ft | 529 kts | 84° |
| 2026-05-05 10:29 | 27.02048 | 83.42082 | 38894 ft | 529 kts | 84° |
| 2026-05-05 10:30 | 27.02868 | 83.50302 | 38867 ft | 531 kts | 84° |
| 2026-05-05 10:30 | 27.03683 | 83.58511 | 38752 ft | 536 kts | 85° |
| 2026-05-05 10:31 | 27.04096 | 83.62693 | 38095 ft | 540 kts | 85° |
| 2026-05-05 10:31 | 27.04510 | 83.66898 | 37276 ft | 544 kts | 85° |
| 2026-05-05 10:31 | 27.04926 | 83.71132 | 36572 ft | 544 kts | 85° |
| 2026-05-05 10:31 | 27.05335 | 83.75308 | 35943 ft | 544 kts | 85° |
| 2026-05-05 10:32 | 27.05747 | 83.79530 | 35325 ft | 543 kts | 85° |
| 2026-05-05 10:32 | 27.06157 | 83.83746 | 34712 ft | 541 kts | 85° |
| 2026-05-05 10:32 | 27.06564 | 83.87934 | 34070 ft | 537 kts | 85° |
| 2026-05-05 10:32 | 27.06961 | 83.92036 | 33002 ft | 531 kts | 85° |
| 2026-05-05 10:33 | 27.07358 | 83.96146 | 31723 ft | 529 kts | 85° |
| 2026-05-05 10:33 | 27.07753 | 84.00262 | 30499 ft | 526 kts | 85° |
| 2026-05-05 10:33 | 27.08139 | 84.04287 | 29366 ft | 520 kts | 85° |
| 2026-05-05 10:33 | 27.08521 | 84.08283 | 28252 ft | 511 kts | 85° |
| 2026-05-05 10:34 | 27.08771 | 84.10905 | 27541 ft | 505 kts | 85° |
| 2026-05-05 10:34 | 27.09141 | 84.14791 | 26481 ft | 497 kts | 85° |
| 2026-05-05 10:34 | 27.09504 | 84.18622 | 25435 ft | 489 kts | 85° |
| 2026-05-05 10:34 | 27.09860 | 84.22384 | 24431 ft | 481 kts | 85° |
| 2026-05-05 10:35 | 27.10210 | 84.26098 | 23553 ft | 472 kts | 86° |
| 2026-05-05 10:35 | 27.10550 | 84.29709 | 22902 ft | 457 kts | 85° |
| 2026-05-05 10:35 | 27.10875 | 84.33185 | 22412 ft | 450 kts | 85° |
| 2026-05-05 10:35 | 27.11199 | 84.36655 | 21917 ft | 444 kts | 85° |
| 2026-05-05 10:36 | 27.11518 | 84.40091 | 21417 ft | 438 kts | 85° |
| 2026-05-05 10:36 | 27.11828 | 84.43443 | 20948 ft | 433 kts | 85° |
| 2026-05-05 10:36 | 27.12138 | 84.46799 | 20455 ft | 428 kts | 85° |
| 2026-05-05 10:36 | 27.12443 | 84.50108 | 19982 ft | 424 kts | 85° |
| 2026-05-05 10:37 | 27.12746 | 84.53393 | 19470 ft | 420 kts | 85° |
| 2026-05-05 10:37 | 27.13045 | 84.56658 | 18885 ft | 419 kts | 85° |
| 2026-05-05 10:37 | 27.13338 | 84.59861 | 18507 ft | 413 kts | 85° |
| 2026-05-05 10:37 | 27.13630 | 84.63038 | 18360 ft | 403 kts | 85° |
| 2026-05-05 10:38 | 27.13874 | 84.66168 | 18157 ft | 400 kts | 90° |
| 2026-05-05 10:38 | 27.13643 | 84.69270 | 17928 ft | 397 kts | 105° |
| 2026-05-05 10:38 | 27.12676 | 84.72100 | 17663 ft | 389 kts | 124° |
| 2026-05-05 10:38 | 27.10938 | 84.74355 | 17398 ft | 377 kts | 146° |
| 2026-05-05 10:39 | 27.08659 | 84.75694 | 17134 ft | 365 kts | 168° |
| 2026-05-05 10:39 | 27.06176 | 84.75990 | 16889 ft | 355 kts | 189° |
| 2026-05-05 10:39 | 27.03847 | 84.75296 | 16635 ft | 347 kts | 208° |
| 2026-05-05 10:39 | 27.01881 | 84.73766 | 16380 ft | 342 kts | 226° |
| 2026-05-05 10:40 | 27.00494 | 84.71643 | 16126 ft | 340 kts | 244° |
| 2026-05-05 10:40 | 26.99754 | 84.69118 | 15885 ft | 340 kts | 257° |
| 2026-05-05 10:40 | 26.99360 | 84.66524 | 15641 ft | 340 kts | 262° |
| 2026-05-05 10:40 | 26.99110 | 84.63868 | 15397 ft | 341 kts | 264° |
| 2026-05-05 10:41 | 26.98931 | 84.61248 | 15162 ft | 341 kts | 264° |
| 2026-05-05 10:41 | 26.98753 | 84.58589 | 14948 ft | 341 kts | 264° |
| 2026-05-05 10:41 | 26.98559 | 84.55936 | 14885 ft | 341 kts | 264° |
| 2026-05-05 10:41 | 26.98342 | 84.53309 | 14881 ft | 341 kts | 263° |
| 2026-05-05 10:42 | 26.97785 | 84.48019 | 14877 ft | 341 kts | 262° |
| 2026-05-05 10:42 | 26.97732 | 84.45347 | 14878 ft | 342 kts | 274° |
| 2026-05-05 10:42 | 26.98272 | 84.42788 | 14878 ft | 344 kts | 290° |
| 2026-05-05 10:43 | 26.99537 | 84.40505 | 14879 ft | 348 kts | 310° |
| 2026-05-05 10:43 | 27.01482 | 84.38853 | 14886 ft | 354 kts | 332° |
| 2026-05-05 10:43 | 27.03862 | 84.38106 | 14886 ft | 359 kts | 353° |
| 2026-05-05 10:43 | 27.06329 | 84.38375 | 14891 ft | 364 kts | 15° |
| 2026-05-05 10:44 | 27.08595 | 84.39648 | 14892 ft | 366 kts | 37° |
| 2026-05-05 10:44 | 27.10297 | 84.41762 | 14886 ft | 367 kts | 59° |
| 2026-05-05 10:44 | 27.11236 | 84.44393 | 14887 ft | 367 kts | 75° |
| 2026-05-05 10:44 | 27.11787 | 84.47202 | 14884 ft | 368 kts | 81° |
| 2026-05-05 10:45 | 27.12149 | 84.50017 | 14891 ft | 368 kts | 83° |
| 2026-05-05 10:45 | 27.12439 | 84.52878 | 14889 ft | 368 kts | 84° |
| 2026-05-05 10:45 | 27.12719 | 84.55761 | 14892 ft | 374 kts | 84° |
| 2026-05-05 10:45 | 27.13020 | 84.58688 | 14900 ft | 378 kts | 84° |
| 2026-05-05 10:46 | 27.13340 | 84.61567 | 14898 ft | 373 kts | 83° |
| 2026-05-05 10:46 | 27.13681 | 84.64439 | 14900 ft | 369 kts | 83° |
| 2026-05-05 10:46 | 27.14002 | 84.67299 | 14897 ft | 369 kts | 84° |
| 2026-05-05 10:46 | 27.14241 | 84.70173 | 14904 ft | 370 kts | 85° |
| 2026-05-05 10:47 | 27.14460 | 84.73056 | 14905 ft | 370 kts | 85° |
| 2026-05-05 10:47 | 27.14678 | 84.75894 | 14903 ft | 369 kts | 85° |
| 2026-05-05 10:47 | 27.14901 | 84.78788 | 14905 ft | 369 kts | 85° |
| 2026-05-05 10:47 | 27.15125 | 84.81674 | 14907 ft | 369 kts | 85° |
| 2026-05-05 10:48 | 27.15346 | 84.84517 | 14914 ft | 369 kts | 85° |
| 2026-05-05 10:48 | 27.15571 | 84.87396 | 14912 ft | 369 kts | 85° |
| 2026-05-05 10:48 | 27.15797 | 84.90283 | 14807 ft | 370 kts | 85° |
| 2026-05-05 10:48 | 27.16023 | 84.93162 | 14379 ft | 368 kts | 85° |
| 2026-05-05 10:49 | 27.16268 | 84.95977 | 13916 ft | 365 kts | 82° |
| 2026-05-05 10:49 | 27.16987 | 84.98686 | 13518 ft | 357 kts | 62° |
| 2026-05-05 10:49 | 27.18309 | 85.01003 | 13071 ft | 350 kts | 53° |
| 2026-05-05 10:49 | 27.19790 | 85.03166 | 12394 ft | 357 kts | 51° |
| 2026-05-05 10:50 | 27.21348 | 85.05374 | 11909 ft | 359 kts | 50° |
| 2026-05-05 10:50 | 27.22892 | 85.07568 | 11791 ft | 355 kts | 50° |
| 2026-05-05 10:50 | 27.24392 | 85.09711 | 11688 ft | 341 kts | 50° |
| 2026-05-05 10:50 | 27.25825 | 85.11768 | 11564 ft | 327 kts | 51° |
| 2026-05-05 10:51 | 27.27185 | 85.13727 | 11416 ft | 315 kts | 50° |
| 2026-05-05 10:51 | 27.28516 | 85.15645 | 11164 ft | 308 kts | 50° |
| 2026-05-05 10:51 | 27.29920 | 85.17469 | 10736 ft | 306 kts | 40° |
| 2026-05-05 10:51 | 27.31712 | 85.18740 | 10332 ft | 302 kts | 23° |
| 2026-05-05 10:52 | 27.33618 | 85.19635 | 9965 ft | 299 kts | 18° |
| 2026-05-05 10:52 | 27.35599 | 85.20319 | 9567 ft | 295 kts | 12° |
| 2026-05-05 10:52 | 27.37621 | 85.20741 | 9137 ft | 293 kts | 5° |
| 2026-05-05 10:52 | 27.39610 | 85.20889 | 8905 ft | 287 kts | 0° |
| 2026-05-05 10:53 | 27.41611 | 85.20900 | 8875 ft | 286 kts | 359° |
| 2026-05-05 10:53 | 27.43552 | 85.20894 | 8865 ft | 270 kts | 360° |
| 2026-05-05 10:53 | 27.45358 | 85.21001 | 8863 ft | 254 kts | 5° |
| 2026-05-05 10:53 | 27.47072 | 85.21328 | 8870 ft | 246 kts | 12° |
| 2026-05-05 10:54 | 27.48720 | 85.21816 | 8878 ft | 245 kts | 14° |
| 2026-05-05 10:54 | 27.50360 | 85.22349 | 8873 ft | 245 kts | 15° |
| 2026-05-05 10:54 | 27.52000 | 85.22897 | 8890 ft | 245 kts | 16° |
| 2026-05-05 10:54 | 27.53578 | 85.23557 | 8867 ft | 242 kts | 22° |
| 2026-05-05 10:55 | 27.55070 | 85.24443 | 8669 ft | 243 kts | 31° |
| 2026-05-05 10:55 | 27.56448 | 85.25580 | 8509 ft | 246 kts | 39° |
| 2026-05-05 10:55 | 27.57646 | 85.26917 | 8360 ft | 246 kts | 48° |
| 2026-05-05 10:55 | 27.58679 | 85.28464 | 8251 ft | 246 kts | 57° |
| 2026-05-05 10:56 | 27.59496 | 85.30166 | 8132 ft | 247 kts | 65° |
| 2026-05-05 10:56 | 27.60151 | 85.31967 | 8061 ft | 245 kts | 68° |
| 2026-05-05 10:56 | 27.60729 | 85.33703 | 8057 ft | 235 kts | 69° |
| 2026-05-05 10:56 | 27.61292 | 85.35427 | 8047 ft | 233 kts | 69° |
| 2026-05-05 10:57 | 27.61855 | 85.37152 | 8039 ft | 235 kts | 68° |
| 2026-05-05 10:57 | 27.62505 | 85.38846 | 8034 ft | 235 kts | 61° |
| 2026-05-05 10:57 | 27.63400 | 85.40379 | 7984 ft | 233 kts | 50° |
| 2026-05-05 10:57 | 27.64451 | 85.41728 | 7919 ft | 225 kts | 46° |
| 2026-05-05 10:58 | 27.65509 | 85.43002 | 7853 ft | 220 kts | 45° |
| 2026-05-05 10:58 | 27.66536 | 85.44236 | 7759 ft | 209 kts | 46° |
| 2026-05-05 10:58 | 27.67510 | 85.45386 | 7684 ft | 196 kts | 42° |
| 2026-05-05 10:58 | 27.68535 | 85.46314 | 7605 ft | 188 kts | 34° |
| 2026-05-05 10:59 | 27.69676 | 85.46995 | 7530 ft | 185 kts | 16° |
| 2026-05-05 10:59 | 27.70941 | 85.47208 | 7333 ft | 184 kts | 358° |
| 2026-05-05 10:59 | 27.72195 | 85.46959 | 7060 ft | 182 kts | 340° |
| 2026-05-05 10:59 | 27.73294 | 85.46299 | 6776 ft | 176 kts | 321° |
| 2026-05-05 11:00 | 27.74138 | 85.45342 | 6480 ft | 170 kts | 304° |
| 2026-05-05 11:00 | 27.74689 | 85.44198 | 6207 ft | 161 kts | 288° |
| 2026-05-05 11:00 | 27.74930 | 85.43012 | 6009 ft | 156 kts | 274° |
| 2026-05-05 11:00 | 27.74896 | 85.41801 | 5934 ft | 153 kts | 261° |
| 2026-05-05 11:01 | 27.74606 | 85.40686 | 5673 ft | 144 kts | 247° |
| 2026-05-05 11:01 | 27.74146 | 85.39699 | 5421 ft | 140 kts | 241° |
| 2026-05-05 11:01 | 27.73656 | 85.38751 | 5175 ft | 139 kts | 242° |
| 2026-05-05 11:01 | 27.73123 | 85.37842 | 4991 ft | 139 kts | 231° |
| 2026-05-05 11:02 | 27.72361 | 85.37162 | 4804 ft | 142 kts | 211° |
| 2026-05-05 11:02 | 27.71451 | 85.36724 | 4576 ft | 141 kts | 203° |
| 2026-05-05 11:02 | 27.70564 | 85.36328 | 4414 ft | 134 kts | 204° |
| 2026-05-05 11:02 | 27.69886 | 85.36017 | 4402 ft | 79 kts | 202° |
| 2026-05-05 11:03 | 27.69444 | 85.35817 | 4385 ft | 58 kts | 201° |
| 2026-05-05 11:03 | 27.69153 | 85.35685 | 4357 ft | 23 kts | 201° |
| 2026-05-05 11:03 | 27.69066 | 85.35638 | 4347 ft | 10 kts | 228° |
| 2026-05-05 11:03 | 27.69083 | 85.35568 | 4348 ft | 10 kts | 322° |
| 2026-05-05 11:04 | 27.69140 | 85.35564 | 4350 ft | 7 kts | 17° |
| 2026-05-05 11:04 | 27.69177 | 85.35580 | 4363 ft | 8 kts | 22° |
| 2026-05-05 11:04 | 27.69244 | 85.35610 | 4358 ft | 9 kts | 21° |
| 2026-05-05 11:04 | 27.69290 | 85.35631 | 4362 ft | 7 kts | 22° |
| 2026-05-05 11:05 | 27.69338 | 85.35653 | 4361 ft | 8 kts | 22° |
| 2026-05-05 11:05 | 27.69399 | 85.35680 | 4366 ft | 10 kts | 22° |
| 2026-05-05 11:05 | 27.69468 | 85.35712 | 4386 ft | 11 kts | 22° |
| 2026-05-05 11:05 | 27.69545 | 85.35747 | 4387 ft | 13 kts | 22° |
| 2026-05-05 11:06 | 27.69636 | 85.35788 | 4392 ft | 15 kts | 22° |
| 2026-05-05 11:06 | 27.69731 | 85.35832 | 4394 ft | 15 kts | 22° |
| 2026-05-05 11:06 | 27.69826 | 85.35875 | 4398 ft | 14 kts | 22° |
| 2026-05-05 11:06 | 27.69914 | 85.35915 | 4400 ft | 13 kts | 22° |
| 2026-05-05 11:07 | 27.69987 | 85.35948 | 4401 ft | 9 kts | 21° |
| 2026-05-05 11:07 | 27.70022 | 85.35927 | 4399 ft | 6 kts | 294° |
| 2026-05-05 11:07 | 27.70031 | 85.35900 | 4397 ft | 3 kts | 291° |
| 2026-05-05 11:07 | 27.70038 | 85.35880 | 4396 ft | 0 kts | 291° |